Latest Weather Observations for Fowlers Gap

IDN60801

Issued at 3:35 am EDT Sunday 26 October 2014 (issued every 30 minutes, with the page automatically refreshed every 10 minutes)

About weather observations | Map of weather stations | Latest weather observations for NSW | Other Formats
Station Details ID: 046128 Name: FOWLERS GAP AWS Lat: -31.09 Lon: 141.70 Height: 181.0 m
Data from the previous 72 hours. | See also: Recent months at Fowlers Gap
Date/Time
EDT
Temp
°C
App
Temp
°C
Dew
Point
Rel
Hum
%
Delta-T
°C
Wind Press
QNH
hPa
Press
MSL
hPa
Rain
since 9 am
mm
Dir
 
Spd
km/h
Gust
km/h
Spd
kts
Gust
kts
26/03:30am 23.6 19.6 -2.1 18 11.3 SSW 9 11 5 6 1013.1 1012.6 0.0
26/03:00am 24.6 20.1 -2.9 16 12.1 SW 11 15 6 8 1013.3 1012.8 0.0
26/02:30am 25.1 20.9 -4.2 14 12.6 SSW 9 11 5 6 1013.7 1013.2 0.0
26/02:00am 26.2 20.0 -4.4 13 13.2 SW 19 22 10 12 1014.0 1013.5 0.0
26/01:30am 27.2 20.9 -5.8 11 14.0 SSW 19 24 10 13 1014.4 1013.9 0.0
26/01:00am 26.4 21.7 -5.3 12 13.5 SW 11 15 6 8 1014.6 1014.1 0.0
26/12:30am 27.8 22.2 -6.6 10 14.5 SW 15 19 8 10 1014.7 1014.2 0.0
26/12:00am 28.8 22.9 -5.8 10 14.9 SSW 17 20 9 11 1014.7 1014.2 0.0
 
Date/Time
EDT
Temp
°C
App
Temp
°C
Dew
Point
Rel
Hum
%
Delta-T
°C
Wind Press
QNH
hPa
Press
MSL
hPa
Rain
since 9 am
mm
Dir
 
Spd
km/h
Gust
km/h
Spd
kts
Gust
kts
25/11:30pm 29.8 23.4 -5.1 10 15.4 SSW 20 24 11 13 1014.6 1014.1 0.0
25/11:00pm 30.3 24.9 -1.2 13 14.9 SSW 17 24 9 13 1014.6 1014.1 0.0
25/10:30pm 29.4 26.8 3.4 19 13.2 WSW 6 9 3 5 1014.6 1014.1 0.0
25/10:00pm 30.0 26.4 3.1 18 13.7 SW 11 13 6 7 1014.5 1014.0 0.0
25/09:30pm 32.3 28.0 3.3 16 15.0 SW 15 20 8 11 1014.0 1013.5 0.0
25/09:00pm 33.3 28.6 3.2 15 15.6 SW 17 22 9 12 1013.6 1013.1 0.0
25/08:30pm 33.5 29.6 3.3 15 15.7 SW 13 19 7 10 1013.1 1012.6 0.0
25/08:00pm 34.7 30.8 3.3 14 16.5 WSW 13 17 7 9 1012.6 1012.0 0.0
25/07:30pm 36.4 30.2 2.4 12 17.7 WSW 24 33 13 18 1012.1 1011.5 0.0
25/07:00pm 37.3 30.7 1.9 11 18.4 WSW 26 33 14 18 1011.8 1011.2 0.0
25/06:30pm 37.9 30.2 2.4 11 18.7 WSW 32 41 17 22 1011.6 1011.0 0.0
25/06:00pm 38.6 31.2 1.6 10 19.3 WSW 30 41 16 22 1011.5 1010.9 0.0
25/05:48pm 38.7 31.3 1.6 10 19.4 WSW 30 50 16 27 1011.4 1010.8 0.0
25/05:30pm 38.6 31.0 2.9 11 19.0 WSW 32 41 17 22 1011.6 1011.0 0.0
25/05:00pm 39.6 33.0 2.3 10 19.8 WSW 26 39 14 21 1011.6 1011.0 0.0
25/04:30pm 39.6 32.7 2.3 10 19.8 WSW 28 41 15 22 1011.7 1011.1 0.0
25/04:00pm 39.4 31.5 2.2 10 19.7 W 33 50 18 27 1011.8 1011.2 0.0
25/03:53pm 39.7 30.7 2.4 10 19.8 W 39 44 21 24 1011.8 1011.2 0.0
25/03:45pm 39.0 32.0 1.9 10 19.5 WSW 28 46 15 25 1012.0 1011.4 0.0
25/03:30pm 39.6 33.8 2.3 10 19.8 W 22 35 12 19 1012.1 1011.5 0.0
25/03:00pm 39.1 31.3 1.9 10 19.5 W 32 43 17 23 1012.6 1012.0 0.0
25/02:38pm 39.3 32.3 2.1 10 19.6 W 28 48 15 26 1012.9 1012.3 0.0
25/02:30pm 39.6 32.3 2.3 10 19.8 W 30 41 16 22 1013.1 1012.6 0.0
25/02:00pm 39.7 32.4 2.4 10 19.8 W 30 43 16 23 1013.4 1012.9 0.0
25/01:30pm 39.2 32.7 0.6 9 19.9 W 24 39 13 21 1013.8 1013.3 0.0
25/01:00pm 38.9 33.0 1.8 10 19.4 W 22 32 12 17 1014.0 1013.5 0.0
25/12:37pm 38.5 31.0 1.5 10 19.3 W 30 48 16 26 1014.4 1013.9 0.0
25/12:30pm 38.3 30.4 1.3 10 19.2 W 32 48 17 26 1014.5 1014.0 0.0
25/12:00pm 37.9 30.7 1.0 10 19.0 WNW 28 41 15 22 1014.9 1014.4 0.0
25/11:30am 37.3 31.1 1.9 11 18.4 NW 24 39 13 21 1015.1 1014.5 0.0
25/11:00am 36.5 29.6 2.5 12 17.8 WNW 28 37 15 20 1015.4 1014.8 0.0
25/10:30am 35.2 28.3 2.6 13 16.9 WNW 28 39 15 21 1015.6 1015.0 0.0
25/10:00am 33.6 27.2 3.4 15 15.7 WNW 26 35 14 19 1015.7 1015.1 0.0
25/09:30am 33.2 28.1 3.1 15 15.6 NW 19 26 10 14 1015.7 1015.1 0.0
25/09:00am 31.9 27.7 3.8 17 14.6 NW 15 20 8 11 1015.6 1015.0 0.0
25/08:30am 28.8 26.3 5.0 22 12.4 WNW 7 11 4 6 1015.4 1014.8 0.0
25/08:00am 25.3 24.2 5.0 27 10.3 CALM 0 4 0 2 1014.9 1014.4 0.0
25/07:30am 22.5 20.6 5.0 32 8.8 W 4 9 2 5 1014.6 1014.1 0.0
25/07:00am 21.7 19.6 3.9 31 8.7 W 4 9 2 5 1014.4 1013.9 0.0
25/06:30am 22.3 19.5 3.4 29 9.2 WSW 7 9 4 5 1014.0 1013.5 0.0
25/06:00am 24.3 20.4 3.6 26 10.2 W 13 15 7 8 1013.9 1013.4 0.0
25/05:30am 24.6 21.1 3.3 25 10.5 W 11 13 6 7 1013.7 1013.2 0.0
25/05:00am 26.8 22.9 3.3 22 11.7 NW 13 20 7 11 1013.2 1012.7 0.0
25/04:30am 27.1 22.9 3.6 22 11.8 NW 15 20 8 11 1013.1 1012.6 0.0
25/04:00am 27.4 23.1 3.2 21 12.1 NW 15 24 8 13 1013.1 1012.6 0.0
25/03:30am 28.7 23.5 3.5 20 12.8 NW 20 26 11 14 1013.0 1012.4 0.0
25/03:00am 27.9 24.2 4.2 22 12.1 NNW 13 20 7 11 1013.1 1012.6 0.0
25/02:30am 23.2 20.9 4.7 30 9.3 NNW 6 13 3 7 1013.5 1013.0 0.0
25/02:00am 22.8 21.6 4.8 31 9.0 CALM 0 0 0 0 1013.8 1013.3 0.0
25/01:30am 23.4 21.4 4.4 29 9.5 SSW 4 7 2 4 1014.3 1013.8 0.0
25/01:00am 24.0 22.9 4.9 29 9.6 CALM 0 0 0 0 1014.5 1014.0 0.0
25/12:30am 24.5 23.0 4.8 28 10.0 N 2 6 1 3 1014.8 1014.3 0.0
25/12:00am 25.0 23.4 4.7 27 10.3 N 2 6 1 3 1014.8 1014.3 0.0
 
Date/Time
EDT
Temp
°C
App
Temp
°C
Dew
Point
Rel
Hum
%
Delta-T
°C
Wind Press
QNH
hPa
Press
MSL
hPa
Rain
since 9 am
mm
Dir
 
Spd
km/h
Gust
km/h
Spd
kts
Gust
kts
24/11:30pm 25.4 23.0 4.5 26 10.6 NNW 6 9 3 5 1015.1 1014.5 0.0
24/11:00pm 26.4 24.0 4.2 24 11.2 N 6 11 3 6 1015.2 1014.6 0.0
24/10:30pm 27.5 26.3 4.5 23 11.8 CALM 0 6 0 3 1015.2 1014.6 0.0
24/10:00pm 28.4 27.2 4.6 22 12.3 CALM 0 0 0 0 1015.1 1014.5 0.0
24/09:30pm 29.6 26.6 4.3 20 13.1 S 9 9 5 5 1014.8 1014.3 0.0
24/09:00pm 30.6 28.4 3.6 18 13.9 S 4 9 2 5 1014.4 1013.9 0.0
24/08:30pm 32.4 29.5 2.5 15 15.3 NW 7 9 4 5 1014.2 1013.7 0.0
24/08:00pm 33.8 29.8 2.6 14 16.1 NW 13 17 7 9 1014.0 1013.5 0.0
24/07:30pm 34.5 29.2 2.1 13 16.6 NW 19 24 10 13 1013.6 1013.1 0.0
24/07:00pm 34.8 29.6 2.3 13 16.8 NW 19 28 10 15 1013.6 1013.1 0.0
24/06:30pm 35.5 28.7 0.6 11 17.6 WNW 26 37 14 20 1013.4 1012.9 0.0
24/06:00pm 35.4 29.1 1.7 12 17.3 WSW 24 33 13 18 1013.3 1012.8 0.0
24/05:30pm 36.4 29.1 -0.1 10 18.3 W 28 37 15 20 1013.2 1012.7 0.0
24/05:00pm 36.7 30.9 0.1 10 18.4 W 20 30 11 16 1013.2 1012.7 0.0
24/04:30pm 37.0 30.9 0.4 10 18.6 W 22 30 12 16 1013.4 1012.9 0.0
24/04:00pm 36.3 30.7 1.2 11 17.9 W 20 30 11 16 1013.6 1013.1 0.0
24/03:30pm 36.3 30.9 1.2 11 17.9 W 19 30 10 16 1013.7 1013.2 0.0
24/03:00pm 36.4 31.0 2.4 12 17.7 W 20 32 11 17 1014.1 1013.6 0.0
24/02:30pm 36.1 29.7 3.3 13 17.3 WNW 26 35 14 19 1014.6 1014.1 0.0
24/02:00pm 35.3 29.6 2.7 13 17.0 WNW 22 33 12 18 1014.9 1014.4 0.0
24/01:30pm 34.7 29.1 3.3 14 16.4 WNW 22 30 12 16 1015.3 1014.7 0.0
24/01:00pm 34.3 29.2 4.0 15 16.0 WNW 20 32 11 17 1015.5 1014.9 0.0
24/12:30pm 34.2 29.1 3.9 15 16.0 WNW 20 28 11 15 1015.8 1015.2 0.0
24/12:00pm 34.7 29.8 4.3 15 16.2 NW 19 32 10 17 1015.9 1015.3 0.0
24/11:30am 33.6 28.9 3.4 15 15.7 NW 17 24 9 13 1016.0 1015.4 0.0
24/11:00am 32.0 29.4 6.2 20 13.9 NW 9 13 5 7 1016.3 1015.7 0.0
24/10:30am 30.3 28.6 7.5 24 12.5 ENE 6 9 3 5 1016.4 1015.8 0.0
24/10:00am 29.1 27.2 7.6 26 11.7 E 7 11 4 6 1016.4 1015.8 0.0
24/09:30am 27.2 26.6 7.6 29 10.6 CALM 0 0 0 0 1016.5 1015.9 0.0
24/09:00am 25.6 25.1 7.7 32 9.6 CALM 0 0 0 0 1016.4 1015.8 0.0
24/08:30am 23.5 22.7 6.7 34 8.7 CALM 0 0 0 0 1016.1 1015.5 0.0
24/08:00am 22.1 21.3 6.7 37 7.9 CALM 0 0 0 0 1016.0 1015.4 0.0
24/07:30am 19.3 18.0 4.3 37 7.2 CALM 0 0 0 0 1015.6 1015.0 0.0
24/07:00am 18.9 17.7 4.7 39 6.9 CALM 0 0 0 0 1015.1 1014.5 0.0
24/06:30am 18.3 16.5 3.4 37 7.0 E 2 7 1 4 1014.5 1014.0 0.0
24/06:00am 18.7 16.4 2.9 35 7.4 W 4 7 2 4 1014.3 1013.8 0.0
24/05:30am 19.3 17.8 3.1 34 7.6 CALM 0 0 0 0 1014.1 1013.6 0.0
24/05:00am 19.9 18.0 2.7 32 8.1 WNW 2 7 1 4 1014.0 1013.5 0.0
24/04:30am 21.2 19.3 3.0 30 8.7 WNW 2 7 1 4 1013.9 1013.4 0.0
24/04:00am 22.8 20.1 3.9 29 9.3 SW 7 9 4 5 1013.9 1013.4 0.0
24/03:30am 22.4 20.7 2.0 26 9.6 CALM 0 6 0 3 1014.1 1013.6 0.0
24/03:00am 23.3 18.3 1.6 24 10.2 WSW 17 22 9 12 1014.2 1013.7 0.0
24/02:30am 22.9 18.9 0.7 23 10.3 SW 11 15 6 8 1014.6 1014.1 0.0
24/02:00am 23.2 19.7 -1.0 20 10.9 SW 7 11 4 6 1014.6 1014.1 0.0
24/01:30am 24.1 20.7 -1.7 18 11.5 SW 6 9 3 5 1014.8 1014.3 0.0
24/01:00am 24.0 20.2 -1.0 19 11.3 SW 9 11 5 6 1014.9 1014.4 0.0
24/12:30am 25.4 21.1 -1.4 17 12.2 WSW 11 17 6 9 1014.9 1014.4 0.0
24/12:00am 25.3 21.2 0.0 19 11.8 WSW 11 13 6 7 1014.9 1014.4 0.0
 
Date/Time
EDT
Temp
°C
App
Temp
°C
Dew
Point
Rel
Hum
%
Delta-T
°C
Wind Press
QNH
hPa
Press
MSL
hPa
Rain
since 9 am
mm
Dir
 
Spd
km/h
Gust
km/h
Spd
kts
Gust
kts
23/11:30pm 26.0 22.8 0.6 19 12.0 WSW 7 9 4 5 1014.6 1014.1 0.0
23/11:00pm 27.3 23.7 0.9 18 12.7 SW 9 15 5 8 1014.6 1014.1 0.0
23/10:30pm 28.6 24.3 1.2 17 13.3 WSW 13 17 7 9 1014.5 1014.0 0.0
23/10:00pm 27.8 24.7 1.3 18 12.9 WSW 7 11 4 6 1013.9 1013.4 0.0
23/09:30pm 28.1 25.0 1.6 18 12.9 SW 7 9 4 5 1013.5 1013.0 0.0
23/09:00pm 30.3 26.0 0.8 15 14.4 WSW 13 15 7 8 1013.0 1012.4 0.0
23/08:30pm 31.5 27.5 0.8 14 15.1 WSW 11 13 6 7 1012.6 1012.0 0.0
23/08:00pm 33.4 28.2 0.1 12 16.4 W 17 24 9 13 1012.2 1011.6 0.0
23/07:30pm 34.8 28.1 1.2 12 17.0 W 26 33 14 18 1012.0 1011.4 0.0
23/07:00pm 36.1 28.9 1.0 11 17.9 W 28 35 15 19 1011.6 1011.0 0.0
23/06:30pm 36.7 30.2 0.1 10 18.4 W 24 33 13 18 1011.4 1010.8 0.0
23/06:00pm 37.4 30.6 0.7 10 18.8 W 26 43 14 23 1011.5 1010.9 0.0
23/05:30pm 37.5 30.5 2.1 11 18.5 W 28 46 15 25 1011.5 1010.9 0.0
23/05:08pm 37.7 30.7 2.2 11 18.6 W 28 46 15 25 1011.5 1010.9 0.0
23/05:00pm 37.1 30.1 1.8 11 18.3 W 28 43 15 23 1011.7 1011.1 0.0
23/04:30pm 36.9 29.7 2.8 12 17.9 WNW 30 39 16 21 1012.0 1011.4 0.0
23/04:09pm 37.1 30.1 1.8 11 18.3 WNW 28 52 15 28 1012.1 1011.5 0.0
23/04:00pm 37.9 29.3 2.4 11 18.7 W 37 48 20 26 1012.3 1011.7 0.0
23/03:30pm 37.5 29.8 2.1 11 18.5 W 32 43 17 23 1012.5 1011.9 0.0
23/03:00pm 37.3 29.3 1.9 11 18.4 W 33 44 18 24 1012.9 1012.3 0.0
23/02:44pm 37.3 30.5 3.1 12 18.1 WNW 28 50 15 27 1013.0 1012.4 0.0
23/02:30pm 36.9 30.3 4.0 13 17.6 NW 28 41 15 22 1013.4 1012.9 0.0
23/02:00pm 36.0 30.6 4.3 14 17.0 NW 22 32 12 17 1013.8 1013.3 0.0
23/01:30pm 35.5 29.4 4.9 15 16.5 NW 26 43 14 23 1014.3 1013.8 0.0
23/01:00pm 34.6 28.2 5.1 16 15.9 WNW 28 41 15 22 1014.8 1014.3 0.0
23/12:30pm 34.2 27.5 5.7 17 15.5 NW 30 44 16 24 1015.4 1014.8 0.0
23/12:00pm 33.0 25.9 6.3 19 14.5 NW 33 46 18 25 1015.6 1015.0 0.0
23/11:30am 32.6 25.6 6.7 20 14.2 WNW 33 44 18 24 1015.8 1015.2 0.0
23/11:00am 31.6 24.7 7.3 22 13.3 WNW 33 43 18 23 1016.0 1015.4 0.0
23/10:30am 30.5 22.8 7.0 23 12.8 NW 37 48 20 26 1016.1 1015.5 0.0
23/10:00am 29.7 22.9 7.6 25 12.1 WNW 33 43 18 23 1016.2 1015.6 0.0
23/09:30am 28.5 22.4 8.2 28 11.1 WNW 30 43 16 23 1016.4 1015.8 0.0
23/09:00am 27.6 23.0 8.0 29 10.7 NW 22 35 12 19 1016.4 1015.8 0.0
23/08:30am 26.2 23.3 8.2 32 9.8 NW 13 20 7 11 1016.6 1016.0 0.0
23/08:00am 25.1 23.2 7.7 33 9.3 W 7 15 4 8 1016.6 1016.0 0.0
23/07:30am 23.9 21.6 7.5 35 8.7 NNW 9 15 5 8 1016.4 1015.8 0.0
23/07:00am 22.7 21.7 7.3 37 8.0 NNW 2 7 1 4 1016.2 1015.6 0.0
23/06:30am 22.7 21.6 6.9 36 8.2 W 2 7 1 4 1016.0 1015.4 0.0
23/06:00am 22.6 20.6 6.4 35 8.3 SSW 6 7 3 4 1015.8 1015.2 0.0
23/05:30am 23.0 20.4 6.3 34 8.6 SW 9 11 5 6 1015.5 1014.9 0.0
23/05:00am 22.7 20.5 6.0 34 8.5 SW 7 11 4 6 1015.3 1014.7 0.0
23/04:30am 25.0 21.8 6.7 31 9.6 NW 13 17 7 9 1015.1 1014.5 0.0
23/04:00am 25.2 22.7 6.4 30 9.8 NNW 9 15 5 8 1015.2 1014.6 0.0

Other Formats:

Comma delimited format used in spreadsheet applications
http://www.bom.gov.au/fwo/IDN60801/IDN60801.94686.axf

JavaScript Object Notation format (JSON) in row-major order
http://www.bom.gov.au/fwo/IDN60801/IDN60801.94686.json